Time;durP1;ratioP1;P1;durP2;ratioP2;P2;SDS_P1;SDS_P2;PMS_P1;PMS_P2;Temp;Humidity;BMP_temperature;BMP_pressure;BME280_temperature;BME280_humidity;BME280_pressure;Samples;Min_cycle;Max_cycle;Signal;HPM_P1;HPM_P2
2022/12/07 00:02:33;;;;;;;1.42;1.25;;;;;;;4.65;100.00;101896.50;10381586;28;20033;-70
2022/12/07 00:07:34;;;;;;;4.22;1.92;;;;;;;4.36;100.00;101891.84;10380806;28;20039;-70
2022/12/07 00:12:34;;;;;;;1.90;1.80;;;;;;;4.08;100.00;101897.88;10382283;28;20120;-70
2022/12/07 00:17:34;;;;;;;1.40;1.25;;;;;;;3.80;100.00;101894.88;10397495;28;20068;-70
2022/12/07 00:22:35;;;;;;;3.28;1.50;;;;;;;3.61;100.00;101892.88;10380711;28;20092;-70
2022/12/07 00:27:35;;;;;;;3.28;2.65;;;;;;;3.50;100.00;101884.88;10380655;28;20101;-70
2022/12/07 00:32:35;;;;;;;6.57;2.45;;;;;;;3.39;100.00;101887.59;10379906;28;20065;-70
2022/12/07 00:37:36;;;;;;;9.90;1.95;;;;;;;3.31;100.00;101880.19;10380929;28;20045;-70
2022/12/07 00:42:36;;;;;;;3.30;1.65;;;;;;;3.29;100.00;101879.47;10380686;28;20030;-70
2022/12/07 00:47:37;;;;;;;3.35;1.15;;;;;;;3.35;100.00;101886.13;10380529;28;20088;-69
2022/12/07 00:52:37;;;;;;;3.47;2.55;;;;;;;3.26;100.00;101877.91;10379426;28;20029;-71
2022/12/07 00:57:37;;;;;;;10.48;2.50;;;;;;;3.25;100.00;101878.00;10379861;28;20045;-70
2022/12/07 01:02:38;;;;;;;1.98;1.88;;;;;;;3.19;100.00;101887.41;10379907;28;20046;-70
2022/12/07 01:07:38;;;;;;;12.75;2.10;;;;;;;3.13;100.00;101885.22;10379000;28;20037;-70
2022/12/07 01:12:39;;;;;;;11.05;3.58;;;;;;;3.16;100.00;101879.63;10379327;28;20030;-70
2022/12/07 01:17:39;;;;;;;6.65;2.47;;;;;;;3.26;100.00;101877.03;10362549;28;20041;-70
2022/12/07 01:22:40;;;;;;;2.38;2.15;;;;;;;3.25;100.00;101880.69;10379469;28;20046;-70
2022/12/07 01:27:41;;;;;;;12.73;2.90;;;;;;;3.12;100.00;101877.31;10379940;28;20032;-70
2022/12/07 01:32:41;;;;;;;1.70;1.60;;;;;;;3.15;100.00;101885.94;10378699;28;20080;-70
2022/12/07 01:37:41;;;;;;;4.45;2.88;;;;;;;3.32;100.00;101883.69;10378002;28;20037;-70
2022/12/07 01:42:42;;;;;;;4.45;2.00;;;;;;;3.64;100.00;101889.94;10378352;28;20104;-70
2022/12/07 01:47:43;;;;;;;13.15;2.85;;;;;;;3.96;100.00;101889.91;10378301;28;20124;-71
2022/12/07 01:52:43;;;;;;;6.10;2.28;;;;;;;4.05;100.00;101890.09;10379416;28;20458;-71
2022/12/07 01:57:46;;;;;;;8.80;2.67;;;;;;;4.11;100.00;101882.38;10376819;28;20029;-71
2022/12/07 02:02:55;;;;;;;8.95;1.92;;;;;;;4.08;100.00;101863.88;10391944;28;20092;-72
2022/12/07 02:07:56;;;;;;;4.03;1.88;;;;;;;3.82;100.00;101867.94;10392713;28;20053;-72
2022/12/07 02:13:19;;;;;;;9.23;2.60;;;;;;;3.55;100.00;101863.06;10393079;28;20030;-72
2022/12/07 02:18:29;;;;;;;8.70;1.98;;;;;;;3.50;100.00;101864.28;10375984;28;20030;-72
2022/12/07 02:23:45;;;;;;;5.15;1.55;;;;;;;3.65;100.00;101861.31;10378415;28;20073;-72
2022/12/07 02:29:17;;;;;;;8.25;2.85;;;;;;;3.53;100.00;101854.31;10376048;28;20445;-71
2022/12/07 02:34:32;;;;;;;2.45;1.95;;;;;;;3.41;100.00;101858.84;10359587;28;20084;-71
2022/12/07 02:40:00;;;;;;;3.95;1.65;;;;;;;3.29;100.00;101852.72;10375944;28;20129;-71
2022/12/07 02:45:01;;;;;;;12.88;2.28;;;;;;;3.25;100.00;101859.25;10376415;28;20088;-71
2022/12/07 02:50:05;;;;;;;8.60;2.40;;;;;;;3.36;100.00;101869.97;10376457;28;20458;-72
2022/12/07 02:55:07;;;;;;;4.05;2.38;;;;;;;3.68;100.00;101859.22;10376990;28;20032;-71
2022/12/07 03:00:25;;;;;;;7.00;1.98;;;;;;;3.99;100.00;101863.81;10374414;28;20036;-71
2022/12/07 03:05:43;;;;;;;8.57;2.55;;;;;;;4.28;100.00;101850.59;10375093;28;20482;-71
2022/12/07 03:10:57;;;;;;;12.57;2.38;;;;;;;4.45;100.00;101865.22;10391231;28;20034;-72
2022/12/07 03:16:02;;;;;;;3.22;2.25;;;;;;;4.42;100.00;101858.28;10389709;28;20351;-71
2022/12/07 03:21:06;;;;;;;14.68;2.22;;;;;;;4.29;100.00;101866.53;10391166;28;20108;-71
2022/12/07 03:26:06;;;;;;;9.57;1.70;;;;;;;4.28;100.00;101845.25;10375354;28;20397;-72
2022/12/07 03:31:13;;;;;;;3.10;1.45;;;;;;;4.27;100.00;101851.56;10391860;28;20120;-72
2022/12/07 03:36:42;;;;;;;12.38;2.17;;;;;;;4.46;100.00;101845.44;10389869;28;20542;-71
2022/12/07 03:41:42;;;;;;;8.70;2.67;;;;;;;4.50;100.00;101844.19;10384879;28;20509;-72
2022/12/07 03:46:47;;;;;;;5.35;1.77;;;;;;;4.32;100.00;101835.94;10376702;28;20038;-72
2022/12/07 03:52:07;;;;;;;11.23;2.58;;;;;;;4.08;100.00;101838.91;10374563;28;20029;-72
2022/12/07 03:57:08;;;;;;;7.50;1.98;;;;;;;4.02;100.00;101834.94;10375615;28;20113;-72
2022/12/07 04:02:10;;;;;;;7.28;2.20;;;;;;;3.92;100.00;101834.88;10373261;28;20145;-71
2022/12/07 04:07:10;;;;;;;13.60;2.03;;;;;;;3.83;100.00;101837.47;10390514;28;20104;-71
2022/12/07 04:12:11;;;;;;;2.00;1.88;;;;;;;3.89;100.00;101840.50;10374277;28;20037;-71
2022/12/07 04:17:11;;;;;;;6.80;2.17;;;;;;;3.75;100.00;101840.81;10374193;28;20462;-71
2022/12/07 04:22:11;;;;;;;5.15;1.90;;;;;;;3.61;100.00;101827.75;10372464;28;20161;-72
2022/12/07 04:27:12;;;;;;;5.70;2.13;;;;;;;3.52;100.00;101825.84;10375333;28;20137;-71
2022/12/07 04:32:12;;;;;;;16.75;2.08;;;;;;;3.48;100.00;101827.94;10379520;28;20022;-72
2022/12/07 04:37:13;;;;;;;3.25;1.83;;;;;;;3.43;100.00;101822.09;10382430;28;20116;-72
2022/12/07 04:42:13;;;;;;;5.60;2.67;;;;;;;3.33;100.00;101815.81;10397160;28;20478;-72
2022/12/07 04:47:13;;;;;;;9.82;1.85;;;;;;;3.28;100.00;101818.88;10380899;28;20038;-71
2022/12/07 04:52:14;;;;;;;10.13;3.28;;;;;;;3.17;100.00;101810.88;10381086;28;20484;-71
2022/12/07 04:57:14;;;;;;;3.03;1.90;;;;;;;3.02;100.00;101808.47;10396226;28;20041;-71
2022/12/07 05:02:14;;;;;;;4.75;2.08;;;;;;;2.98;100.00;101809.72;10395507;28;20038;-71
2022/12/07 05:07:15;;;;;;;8.60;2.53;;;;;;;2.86;100.00;101804.53;10380619;28;20029;-72
2022/12/07 05:12:15;;;;;;;12.68;2.88;;;;;;;3.16;100.00;101806.50;10378598;28;20030;-72
2022/12/07 05:17:16;;;;;;;5.38;1.92;;;;;;;3.22;100.00;101797.94;10377893;28;20069;-71
2022/12/07 05:22:16;;;;;;;9.75;2.38;;;;;;;3.29;100.00;101798.28;10381828;28;20076;-71
2022/12/07 05:27:17;;;;;;;18.40;3.55;;;;;;;3.33;100.00;101799.75;10380085;28;20467;-72
2022/12/07 05:32:17;;;;;;;11.13;3.03;;;;;;;3.30;100.00;101803.53;10378453;28;20077;-71
2022/12/07 05:37:18;;;;;;;5.00;2.65;;;;;;;3.48;100.00;101803.84;10377701;28;20041;-72
2022/12/07 05:42:18;;;;;;;5.18;1.80;;;;;;;3.40;100.00;101806.28;10377915;28;20038;-72
2022/12/07 05:47:18;;;;;;;20.35;4.05;;;;;;;3.15;100.00;101802.97;10393758;28;20066;-72
2022/12/07 05:52:19;;;;;;;10.20;3.13;;;;;;;3.05;100.00;101802.03;10379379;28;20073;-72
2022/12/07 05:57:19;;;;;;;9.27;2.50;;;;;;;2.98;100.00;101800.84;10393437;28;20577;-72
2022/12/07 06:02:20;;;;;;;7.72;1.75;;;;;;;2.99;100.00;101802.53;10382698;28;20030;-72
2022/12/07 06:07:20;;;;;;;12.55;3.60;;;;;;;3.07;100.00;101801.94;10375988;28;20084;-71
2022/12/07 06:12:38;;;;;;;20.67;4.30;;;;;;;3.10;100.00;101799.84;10393627;28;20389;-71
2022/12/07 06:17:38;;;;;;;11.27;3.63;;;;;;;3.20;100.00;101794.56;10329239;28;20092;-71
2022/12/07 06:22:39;;;;;;;3.38;2.40;;;;;;;3.23;100.00;101797.84;10376319;28;20073;-71
2022/12/07 06:27:39;;;;;;;12.13;3.10;;;;;;;3.16;100.00;101796.66;10376564;28;20528;-71
2022/12/07 06:32:39;;;;;;;7.03;1.92;;;;;;;3.21;100.00;101802.47;10375859;28;20065;-72
2022/12/07 06:37:40;;;;;;;16.92;3.22;;;;;;;3.39;100.00;101801.94;10374771;28;20493;-71
2022/12/07 06:42:40;;;;;;;8.07;2.78;;;;;;;3.53;100.00;101809.63;10374725;28;20034;-71
2022/12/07 06:47:40;;;;;;;12.80;2.70;;;;;;;3.52;100.00;101809.78;10391652;28;20038;-71
2022/12/07 06:52:41;;;;;;;2.90;2.25;;;;;;;3.50;100.00;101805.38;10391137;28;20505;-71
2022/12/07 06:57:41;;;;;;;10.73;2.53;;;;;;;3.46;100.00;101800.41;10391339;28;20041;-71
2022/12/07 07:02:42;;;;;;;7.18;2.63;;;;;;;3.46;100.00;101803.94;10391097;28;20524;-71
2022/12/07 07:07:42;;;;;;;2.70;2.03;;;;;;;3.35;100.00;101809.38;10378278;28;20042;-71
2022/12/07 07:12:42;;;;;;;3.55;2.40;;;;;;;3.24;100.00;101812.91;10374731;28;20451;-71
2022/12/07 07:17:43;;;;;;;6.88;2.35;;;;;;;3.16;100.00;101815.41;10378098;28;20034;-71
2022/12/07 07:22:43;;;;;;;14.90;3.60;;;;;;;3.11;100.00;101820.25;10376035;28;20057;-71
2022/12/07 07:27:44;;;;;;;7.63;2.47;;;;;;;3.32;100.00;101811.41;10390681;28;20038;-71
2022/12/07 07:32:44;;;;;;;6.18;3.15;;;;;;;3.57;100.00;101803.03;10375832;28;20466;-71
2022/12/07 07:37:44;;;;;;;9.27;2.20;;;;;;;3.83;100.00;101811.56;10390424;28;20456;-71
2022/12/07 07:42:52;;;;;;;8.02;2.65;;;;;;;4.03;100.00;101807.16;10391283;28;20065;-71
2022/12/07 07:47:52;;;;;;;6.00;3.17;;;;;;;4.14;100.00;101806.22;10373836;28;20042;-71
2022/12/07 07:52:53;;;;;;;3.63;1.92;;;;;;;4.25;100.00;101810.66;10374807;28;20381;-71
2022/12/07 07:57:53;;;;;;;7.25;2.22;;;;;;;4.25;100.00;101811.50;10391071;28;20038;-71
2022/12/07 08:02:54;;;;;;;2.28;1.80;;;;;;;4.19;100.00;101815.56;10377817;28;20045;-71
2022/12/07 08:07:54;;;;;;;9.30;2.80;;;;;;;4.14;100.00;101811.56;10382945;28;20069;-71
2022/12/07 08:13:15;;;;;;;3.17;2.88;;;;;;;4.38;100.00;101820.16;10382355;28;20034;-71
2022/12/07 08:18:15;;;;;;;9.02;1.83;;;;;;;5.39;100.00;101822.78;10382679;28;20050;-71
2022/12/07 08:23:16;;;;;;;10.05;2.75;;;;;;;5.57;100.00;101819.25;10397501;28;20081;-71
2022/12/07 08:28:16;;;;;;;8.35;3.05;;;;;;;5.71;100.00;101814.41;10382164;28;20124;-71
2022/12/07 08:33:16;;;;;;;8.63;3.72;;;;;;;6.03;100.00;101815.00;10380169;28;20096;-71
2022/12/07 08:38:17;;;;;;;14.75;2.85;;;;;;;5.89;100.00;101810.00;10380693;28;20034;-71
2022/12/07 08:43:17;;;;;;;4.85;1.75;;;;;;;6.63;100.00;101817.28;10396409;28;20390;-71
2022/12/07 08:48:21;;;;;;;9.18;2.78;;;;;;;7.02;100.00;101819.78;10378953;28;20046;-71
2022/12/07 08:53:22;;;;;;;3.95;2.30;;;;;;;7.00;100.00;101808.31;10395254;28;20068;-71
2022/12/07 08:58:22;;;;;;;15.27;3.50;;;;;;;7.61;100.00;101810.22;10395704;28;20363;-71
2022/12/07 09:03:23;;;;;;;14.25;2.25;;;;;;;7.52;100.00;101808.47;10380289;28;20502;-71
2022/12/07 09:08:25;;;;;;;3.42;2.28;;;;;;;7.11;100.00;101810.75;10395199;28;20038;-71
2022/12/07 09:13:25;;;;;;;3.28;2.13;;;;;;;6.67;100.00;101818.72;10378806;28;20026;-71
2022/12/07 09:18:26;;;;;;;6.68;2.33;;;;;;;6.22;100.00;101818.59;10379080;28;20033;-71
2022/12/07 09:23:26;;;;;;;1.30;1.17;;;;;;;5.99;100.00;101818.94;10362262;28;20509;-71
2022/12/07 09:28:26;;;;;;;2.40;1.80;;;;;;;5.78;100.00;101815.56;10379896;28;20033;-71
2022/12/07 09:33:27;;;;;;;1.55;1.42;;;;;;;6.19;100.00;101814.38;10394374;28;20038;-71
2022/12/07 09:38:29;;;;;;;2.45;1.17;;;;;;;6.33;100.00;101814.88;10393602;28;20045;-71
2022/12/07 09:43:29;;;;;;;5.47;1.50;;;;;;;6.40;100.00;101811.44;10379199;28;20036;-71
2022/12/07 09:48:32;;;;;;;6.85;2.50;;;;;;;6.51;100.00;101807.75;10393669;28;20030;-71
2022/12/07 09:53:37;;;;;;;4.57;1.58;;;;;;;6.92;100.00;101801.00;10394214;28;20030;-71
2022/12/07 09:58:37;;;;;;;8.15;2.55;;;;;;;7.59;100.00;101806.00;10376906;28;20064;-71
2022/12/07 10:03:39;;;;;;;6.07;2.70;;;;;;;8.13;100.00;101798.63;10376055;28;20049;-71
2022/12/07 10:08:41;;;;;;;1.15;1.15;;;;;;;9.09;100.00;101787.56;10392881;28;20080;-71
2022/12/07 10:13:48;;;;;;;3.42;2.03;;;;;;;9.46;100.00;101788.97;10392599;28;20122;-71
2022/12/07 10:18:48;;;;;;;2.22;1.25;;;;;;;9.51;100.00;101789.31;10377825;28;20042;-71
2022/12/07 10:24:11;;;;;;;9.02;2.90;;;;;;;8.61;100.00;101790.00;10391872;28;20054;-71
2022/12/07 10:29:19;;;;;;;20.55;1.73;;;;;;;7.83;100.00;101794.56;10378148;28;20432;-71
2022/12/07 10:34:32;;;;;;;1.88;1.23;;;;;;;7.67;100.00;101787.19;10393337;28;20033;-71
2022/12/07 10:39:47;;;;;;;1.65;1.50;;;;;;;7.76;100.00;101775.47;10377183;28;20410;-71
2022/12/07 10:44:48;;;;;;;7.38;2.08;;;;;;;7.93;100.00;101771.03;10376321;28;20026;-71
2022/12/07 10:50:03;;;;;;;13.20;2.83;;;;;;;7.96;100.00;101768.03;10375160;28;20512;-71
2022/12/07 10:55:42;;;;;;;10.13;2.47;;;;;;;8.05;100.00;101761.69;10375860;28;20072;-71
2022/12/07 11:00:46;;;;;;;6.97;2.03;;;;;;;8.06;100.00;101757.13;10376251;28;20109;-71
2022/12/07 11:06:10;;;;;;;1.10;0.98;;;;;;;8.24;100.00;101747.09;10390471;28;20030;-71
2022/12/07 11:11:30;;;;;;;9.02;2.72;;;;;;;8.36;100.00;101737.72;10374083;28;20365;-72
2022/12/07 11:16:36;;;;;;;4.20;1.25;;;;;;;8.41;100.00;101731.00;10391703;28;20120;-71
2022/12/07 11:21:55;;;;;;;3.42;2.28;;;;;;;8.39;100.00;101725.75;10375893;28;20050;-71
2022/12/07 11:27:41;;;;;;;9.90;2.20;;;;;;;8.28;100.00;101748.47;10375587;28;20030;-71
2022/12/07 11:32:53;;;;;;;2.63;1.50;;;;;;;6.98;100.00;101761.81;10374422;28;20030;-71
2022/12/07 11:38:16;;;;;;;7.47;1.10;;;;;;;6.14;100.00;101759.31;10374137;28;20030;-71
2022/12/07 11:43:33;;;;;;;4.47;1.70;;;;;;;5.82;100.00;101731.81;10389965;28;20065;-71
2022/12/07 11:48:38;;;;;;;1.30;1.20;;;;;;;5.89;100.00;101729.38;10374032;28;20037;-71
2022/12/07 11:53:53;;;;;;;3.90;1.80;;;;;;;6.19;100.00;101722.94;10374460;28;20381;-71
2022/12/07 11:59:10;;;;;;;1.80;1.42;;;;;;;7.73;100.00;101719.19;10389886;28;20045;-71
2022/12/07 12:04:10;;;;;;;2.80;1.95;;;;;;;8.87;100.00;101704.47;10375011;28;20041;-71
2022/12/07 12:09:46;;;;;;;2.45;2.05;;;;;;;9.82;100.00;101697.47;10372458;28;20042;-71
2022/12/07 12:15:23;;;;;;;3.13;2.55;;;;;;;10.63;100.00;101696.34;10362557;28;20069;-71
2022/12/07 12:20:36;;;;;;;6.25;2.17;;;;;;;10.26;100.00;101694.31;10390173;28;20104;-71
2022/12/07 12:25:58;;;;;;;3.22;1.45;;;;;;;10.07;100.00;101678.47;10389291;28;20038;-72
2022/12/07 12:31:14;;;;;;;2.50;1.08;;;;;;;9.73;100.00;101682.28;10373880;28;20048;-72
2022/12/07 12:36:27;;;;;;;4.03;3.35;;;;;;;9.35;100.00;101673.94;10373632;28;20030;-71
2022/12/07 12:46:49;;;;;;;1.45;1.02;;;;;;;8.21;100.00;101662.94;10375108;28;20046;-71
2022/12/07 12:51:51;;;;;;;7.75;1.35;;;;;;;8.04;100.00;101668.28;10396924;28;20096;-71
2022/12/07 12:57:06;;;;;;;1.70;1.60;;;;;;;7.87;100.00;101672.72;10380534;28;20069;-71
2022/12/07 13:02:09;;;;;;;1.85;1.65;;;;;;;7.50;100.00;101658.69;10378984;28;20069;-71
2022/12/07 13:07:11;;;;;;;2.22;1.08;;;;;;;7.35;100.00;101669.22;10379409;28;20041;-71
2022/12/07 13:12:13;;;;;;;13.15;2.75;;;;;;;7.00;100.00;101657.50;10378616;28;20386;-71
2022/12/07 13:17:32;;;;;;;4.93;1.42;;;;;;;6.86;100.00;101653.53;10377992;28;20030;-71
2022/12/07 13:22:37;;;;;;;2.13;1.25;;;;;;;6.67;100.00;101632.16;10378265;28;20438;-71
2022/12/07 13:27:39;;;;;;;3.25;1.48;;;;;;;6.60;100.00;101628.38;10379502;28;20486;-71
2022/12/07 13:32:40;;;;;;;2.05;1.52;;;;;;;6.69;100.00;101622.06;10394395;28;20038;-71
2022/12/07 13:37:40;;;;;;;2.92;1.45;;;;;;;6.67;100.00;101614.16;10378300;28;20034;-71
2022/12/07 13:42:40;;;;;;;1.85;1.33;;;;;;;6.68;100.00;101602.38;10377654;28;20037;-71
2022/12/07 13:47:51;;;;;;;3.30;1.67;;;;;;;6.68;100.00;101605.06;10362127;28;20100;-71
2022/12/07 13:52:55;;;;;;;10.52;1.25;;;;;;;7.11;100.00;101600.69;10393016;28;20074;-71
2022/12/07 13:57:55;;;;;;;6.25;1.75;;;;;;;7.35;100.00;101604.56;10379318;28;20060;-71
2022/12/07 14:03:11;;;;;;;4.07;1.27;;;;;;;7.11;100.00;101598.00;10393063;28;20129;-71
2022/12/07 14:08:12;;;;;;;3.58;1.80;;;;;;;6.81;100.00;101590.38;10376053;28;20041;-71
2022/12/07 14:13:33;;;;;;;2.35;1.50;;;;;;;6.57;100.00;101583.75;10376964;28;20080;-71
2022/12/07 14:18:40;;;;;;;10.40;1.65;;;;;;;6.43;100.00;101578.94;10377509;28;20041;-71
2022/12/07 14:23:41;;;;;;;1.75;1.08;;;;;;;6.40;100.00;101588.16;10376780;28;20536;-71
2022/12/07 14:28:43;;;;;;;4.18;1.55;;;;;;;6.41;100.00;101581.75;10391408;28;20046;-71
2022/12/07 14:33:43;;;;;;;6.50;1.40;;;;;;;6.39;100.00;101577.56;10376744;28;20030;-71
2022/12/07 14:38:44;;;;;;;7.75;1.85;;;;;;;6.36;100.00;101559.88;10391748;28;20117;-71
2022/12/07 14:43:45;;;;;;;6.97;1.83;;;;;;;6.30;100.00;101573.94;10376467;28;20026;-71
2022/12/07 14:48:45;;;;;;;4.95;2.28;;;;;;;6.17;100.00;101562.72;10376499;28;20070;-71
2022/12/07 14:53:48;;;;;;;3.67;1.48;;;;;;;6.11;100.00;101552.56;10392675;28;20425;-71
2022/12/07 14:58:49;;;;;;;6.35;2.15;;;;;;;5.98;100.00;101558.31;10378405;28;20038;-72
2022/12/07 15:03:49;;;;;;;8.48;2.50;;;;;;;5.82;100.00;101543.66;10357713;28;20025;-72
2022/12/07 15:08:50;;;;;;;7.18;2.67;;;;;;;5.70;100.00;101542.16;10375790;28;20037;-71
2022/12/07 15:14:10;;;;;;;8.05;2.30;;;;;;;5.58;100.00;101543.34;10375324;28;20489;-71
2022/12/07 15:19:15;;;;;;;3.03;2.60;;;;;;;5.45;100.00;101537.50;10375584;28;20042;-72
2022/12/07 15:24:16;;;;;;;6.72;2.92;;;;;;;5.35;100.00;101538.38;10391569;28;20577;-72
2022/12/07 15:29:16;;;;;;;5.75;3.30;;;;;;;5.29;100.00;101530.91;10376066;28;20169;-72
2022/12/07 15:34:17;;;;;;;8.13;3.30;;;;;;;5.33;100.00;101526.94;10374374;28;20456;-72
2022/12/07 15:39:17;;;;;;;7.03;1.73;;;;;;;5.40;100.00;101529.88;10390162;28;20072;-72
2022/12/07 15:49:36;;;;;;;12.38;2.80;;;;;;;5.55;100.00;101528.41;10373785;28;20042;-71
2022/12/07 15:54:37;;;;;;;4.28;1.10;;;;;;;5.46;100.00;101523.09;10373347;28;20038;-72
2022/12/07 15:59:37;;;;;;;4.03;2.25;;;;;;;5.46;100.00;101517.72;10357338;28;20114;-71
2022/12/07 16:04:38;;;;;;;6.72;2.13;;;;;;;5.40;100.00;101508.41;10373931;28;20549;-72
2022/12/07 16:09:38;;;;;;;6.28;1.95;;;;;;;5.34;100.00;101515.22;10355936;28;20048;-72
2022/12/07 16:14:39;;;;;;;4.15;1.80;;;;;;;5.26;100.00;101509.72;10389921;28;20088;-71
2022/12/07 16:19:39;;;;;;;7.25;2.35;;;;;;;5.27;100.00;101524.84;10390432;28;20065;-71
2022/12/07 16:24:40;;;;;;;3.08;1.90;;;;;;;5.28;100.00;101501.53;10376997;28;20046;-72
2022/12/07 16:29:40;;;;;;;6.38;2.20;;;;;;;5.24;100.00;101500.97;10381389;28;20045;-72
2022/12/07 16:34:40;;;;;;;4.30;2.53;;;;;;;5.20;100.00;101488.84;10396610;28;20034;-72
2022/12/07 16:39:41;;;;;;;4.20;2.55;;;;;;;5.16;100.00;101498.19;10382141;28;20434;-72
2022/12/07 16:44:41;;;;;;;5.03;2.25;;;;;;;5.12;100.00;101488.72;10380314;28;20041;-71
2022/12/07 16:49:42;;;;;;;2.33;1.88;;;;;;;5.09;100.00;101484.50;10380088;28;20523;-72
2022/12/07 16:54:43;;;;;;;3.13;2.20;;;;;;;5.07;100.00;101474.91;10381051;28;20065;-72
2022/12/07 16:59:43;;;;;;;5.57;2.42;;;;;;;5.15;100.00;101472.34;10380310;28;20378;-72
2022/12/07 17:04:43;;;;;;;6.38;3.47;;;;;;;5.24;100.00;101463.38;10380993;28;20030;-72
2022/12/07 17:09:44;;;;;;;5.50;3.47;;;;;;;5.28;100.00;101463.94;10380320;28;20034;-72
2022/12/07 17:20:03;;;;;;;14.00;3.35;;;;;;;5.18;100.00;101463.16;10379277;28;20038;-72
2022/12/07 17:25:04;;;;;;;4.90;2.95;;;;;;;5.16;100.00;101449.84;10378632;28;20058;-71
2022/12/07 17:30:05;;;;;;;5.10;2.42;;;;;;;5.19;100.00;101449.56;10380450;28;20454;-72
2022/12/07 17:35:06;;;;;;;2.08;1.77;;;;;;;5.20;100.00;101432.47;10393396;28;20454;-71
2022/12/07 17:40:07;;;;;;;1.20;1.08;;;;;;;5.20;100.00;101429.78;10379657;28;20486;-72
2022/12/07 17:45:09;;;;;;;5.60;2.05;;;;;;;5.19;100.00;101433.44;10378782;28;20065;-72
2022/12/07 17:50:09;;;;;;;3.42;1.58;;;;;;;5.16;100.00;101428.38;10379212;28;20120;-72
2022/12/07 17:55:09;;;;;;;4.97;1.85;;;;;;;5.13;100.00;101437.56;10393653;28;20074;-72
2022/12/07 18:00:11;;;;;;;5.13;3.63;;;;;;;5.19;100.00;101443.34;10377541;28;20037;-72
2022/12/07 18:05:11;;;;;;;1.58;1.48;;;;;;;5.22;100.00;101435.00;10378002;28;20048;-72
2022/12/07 18:10:11;;;;;;;1.60;1.08;;;;;;;5.23;100.00;101434.00;10378128;28;20497;-71
2022/12/07 18:15:12;;;;;;;1.92;1.80;;;;;;;5.15;100.00;101415.13;10378717;28;20136;-72
2022/12/07 18:20:12;;;;;;;4.68;2.42;;;;;;;5.10;100.00;101400.28;10377494;28;20041;-72
2022/12/07 18:25:13;;;;;;;2.60;2.40;;;;;;;5.02;100.00;101399.34;10392862;28;20046;-71
2022/12/07 18:30:13;;;;;;;6.30;4.20;;;;;;;5.02;100.00;101412.78;10376473;28;20046;-71
2022/12/07 18:35:14;;;;;;;5.45;2.55;;;;;;;5.00;100.00;101418.28;10376292;28;20030;-71
2022/12/07 18:40:14;;;;;;;8.50;2.63;;;;;;;4.95;100.00;101411.69;10376110;28;20057;-71
2022/12/07 18:45:15;;;;;;;3.53;2.78;;;;;;;4.89;100.00;101405.91;10376752;28;20523;-71
2022/12/07 18:50:15;;;;;;;2.55;2.35;;;;;;;4.84;100.00;101407.34;10391003;28;20121;-71
2022/12/07 18:55:15;;;;;;;9.35;2.25;;;;;;;4.71;100.00;101407.66;10376113;28;20069;-71
2022/12/07 19:00:16;;;;;;;7.45;2.47;;;;;;;4.62;100.00;101405.88;10376547;28;20030;-71
2022/12/07 19:05:17;;;;;;;1.95;1.63;;;;;;;4.53;100.00;101393.31;10376369;28;20091;-71
2022/12/07 19:10:17;;;;;;;4.18;1.83;;;;;;;4.52;100.00;101400.53;10374526;28;20440;-72
2022/12/07 19:15:18;;;;;;;2.90;1.65;;;;;;;4.53;100.00;101394.19;10390751;28;20041;-72
2022/12/07 19:20:18;;;;;;;7.18;2.50;;;;;;;4.63;100.00;101386.94;10390716;28;20085;-71
2022/12/07 19:25:18;;;;;;;5.30;2.80;;;;;;;4.61;100.00;101386.25;10376426;28;20393;-71
2022/12/07 19:30:19;;;;;;;7.78;2.15;;;;;;;4.56;100.00;101376.94;10376912;28;20045;-72
2022/12/07 19:35:19;;;;;;;6.38;3.00;;;;;;;4.53;100.00;101367.38;10375541;28;20053;-72
2022/12/07 19:40:20;;;;;;;7.07;4.20;;;;;;;4.58;100.00;101353.50;10375521;28;20046;-71
2022/12/07 19:45:20;;;;;;;4.82;4.35;;;;;;;4.66;100.00;101356.31;10390094;28;20038;-72
2022/12/07 19:50:20;;;;;;;4.60;3.15;;;;;;;4.73;100.00;101357.41;10375327;28;20533;-72
2022/12/07 19:55:21;;;;;;;6.47;3.20;;;;;;;4.82;100.00;101353.00;10373399;28;20037;-71
2022/12/07 20:00:21;;;;;;;6.50;3.38;;;;;;;4.83;100.00;101350.16;10380887;28;20127;-71
2022/12/07 20:05:23;;;;;;;7.07;3.17;;;;;;;4.81;100.00;101353.97;10381887;28;20111;-73
2022/12/07 20:10:24;;;;;;;5.00;2.60;;;;;;;4.68;100.00;101342.75;10383342;28;20038;-71
2022/12/07 20:15:24;;;;;;;9.32;2.45;;;;;;;4.48;100.00;101342.81;10383370;28;20034;-71
2022/12/07 20:20:24;;;;;;;1.95;1.75;;;;;;;4.39;100.00;101330.28;10397789;28;20046;-71
2022/12/07 20:25:25;;;;;;;4.45;1.67;;;;;;;4.34;100.00;101327.19;10383385;28;20141;-72
2022/12/07 20:30:25;;;;;;;5.90;2.80;;;;;;;4.30;100.00;101312.41;10396187;28;20498;-71
2022/12/07 20:35:26;;;;;;;3.03;1.60;;;;;;;4.25;100.00;101310.16;10380176;28;20065;-72
2022/12/07 20:40:26;;;;;;;3.10;2.35;;;;;;;4.35;100.00;101304.78;10381087;28;20080;-71
2022/12/07 20:45:27;;;;;;;3.42;1.95;;;;;;;4.35;100.00;101305.59;10380479;28;20034;-72
2022/12/07 20:50:27;;;;;;;3.47;2.10;;;;;;;4.40;100.00;101303.34;10380187;28;20437;-72
2022/12/07 20:55:27;;;;;;;6.40;3.20;;;;;;;4.41;100.00;101296.97;10380555;28;20458;-72
2022/12/07 21:00:28;;;;;;;2.90;1.65;;;;;;;4.45;100.00;101296.69;10379817;28;20109;-72
2022/12/07 21:05:28;;;;;;;7.53;2.80;;;;;;;4.50;100.00;101314.03;10379647;28;20101;-72
2022/12/07 21:10:29;;;;;;;5.55;2.45;;;;;;;4.54;100.00;101307.38;10378910;28;20108;-70
2022/12/07 21:15:29;;;;;;;1.67;1.58;;;;;;;4.54;100.00;101295.81;10395543;28;20033;-71
2022/12/07 21:20:30;;;;;;;3.00;1.25;;;;;;;4.43;100.00;101292.31;10379658;28;20362;-73
2022/12/07 21:25:30;;;;;;;9.82;2.65;;;;;;;4.37;100.00;101276.81;10378859;28;20033;-71
2022/12/07 21:30:31;;;;;;;6.82;2.63;;;;;;;4.30;100.00;101266.81;10378969;28;20421;-71
2022/12/07 21:35:31;;;;;;;2.15;1.83;;;;;;;4.26;100.00;101258.25;10378456;28;20141;-71
2022/12/07 21:40:32;;;;;;;3.42;2.05;;;;;;;4.24;100.00;101248.66;10378935;28;20124;-71
2022/12/07 21:45:32;;;;;;;3.10;1.10;;;;;;;4.15;100.00;101253.91;10380668;28;20378;-72
2022/12/07 21:50:34;;;;;;;2.83;1.55;;;;;;;4.10;100.00;101241.94;10394981;28;20030;-71
2022/12/07 21:55:39;;;;;;;1.20;1.20;;;;;;;4.04;100.00;101238.00;10378422;28;20500;-71
2022/12/07 22:00:39;;;;;;;6.07;2.28;;;;;;;3.91;100.00;101232.97;10376948;28;20124;-72
2022/12/07 22:05:40;;;;;;;3.90;1.75;;;;;;;3.80;100.00;101225.13;10393849;28;20065;-72
2022/12/07 22:10:41;;;;;;;2.38;1.65;;;;;;;3.77;100.00;101229.94;10392506;28;20037;-72
2022/12/07 22:15:41;;;;;;;2.90;2.10;;;;;;;3.85;100.00;101235.38;10377639;28;20037;-72
2022/12/07 22:20:42;;;;;;;1.42;1.33;;;;;;;3.97;100.00;101240.44;10391839;28;20475;-72
2022/12/07 22:25:42;;;;;;;2.53;2.33;;;;;;;4.12;100.00;101248.00;10377796;28;20091;-71
2022/12/07 22:30:42;;;;;;;7.00;3.45;;;;;;;4.17;100.00;101249.22;10376898;28;20049;-71
2022/12/07 22:35:43;;;;;;;2.80;2.38;;;;;;;4.23;100.00;101246.97;10375703;28;20026;-71
2022/12/07 22:40:43;;;;;;;6.65;2.60;;;;;;;4.24;100.00;101251.31;10376527;28;20092;-72
2022/12/07 22:45:44;;;;;;;4.95;2.22;;;;;;;4.19;100.00;101239.22;10376500;28;20034;-72
2022/12/07 22:50:44;;;;;;;9.18;2.42;;;;;;;4.12;100.00;101221.22;10375785;28;20070;-73
2022/12/07 22:55:44;;;;;;;2.10;2.00;;;;;;;4.08;100.00;101220.63;10375629;28;20518;-73
2022/12/07 23:00:45;;;;;;;4.00;2.40;;;;;;;4.12;100.00;101205.13;10375991;28;20040;-73
2022/12/07 23:05:46;;;;;;;6.38;1.90;;;;;;;4.02;100.00;101198.94;10375234;28;20125;-72
2022/12/07 23:10:47;;;;;;;5.60;2.85;;;;;;;3.89;100.00;101185.88;10390191;28;20037;-72
2022/12/07 23:15:47;;;;;;;1.83;1.73;;;;;;;3.84;100.00;101177.47;10375391;28;20026;-72
2022/12/07 23:20:48;;;;;;;1.35;1.33;;;;;;;3.84;100.00;101172.94;10375126;28;20038;-72
2022/12/07 23:25:49;;;;;;;2.70;1.92;;;;;;;3.81;100.00;101167.88;10374001;28;20069;-72
2022/12/07 23:30:49;;;;;;;1.17;1.17;;;;;;;3.87;100.00;101163.78;10373724;28;20041;-72